sensor_id;sensor_type;location;lat;lon;timestamp;P1;durP1;ratioP1;P2;durP2;ratioP2
59366;SDS011;45163;47.690;11.770;2023-03-13T00:02:14;1.40;;;1.30;;
59366;SDS011;45163;47.690;11.770;2023-03-13T00:04:40;1.40;;;1.30;;
59366;SDS011;45163;47.690;11.770;2023-03-13T00:07:06;1.60;;;1.50;;
59366;SDS011;45163;47.690;11.770;2023-03-13T00:09:32;1.50;;;1.40;;
59366;SDS011;45163;47.690;11.770;2023-03-13T00:11:58;1.50;;;1.40;;
59366;SDS011;45163;47.690;11.770;2023-03-13T00:14:24;2.83;;;1.60;;
59366;SDS011;45163;47.690;11.770;2023-03-13T00:16:50;1.57;;;1.30;;
59366;SDS011;45163;47.690;11.770;2023-03-13T00:19:16;1.87;;;1.53;;
59366;SDS011;45163;47.690;11.770;2023-03-13T00:21:42;1.50;;;1.23;;
59366;SDS011;45163;47.690;11.770;2023-03-13T00:24:08;1.97;;;1.57;;
59366;SDS011;45163;47.690;11.770;2023-03-13T00:26:35;3.07;;;1.57;;
59366;SDS011;45163;47.690;11.770;2023-03-13T00:29:01;1.67;;;1.50;;
59366;SDS011;45163;47.690;11.770;2023-03-13T00:31:28;1.70;;;1.60;;
59366;SDS011;45163;47.690;11.770;2023-03-13T00:34:02;1.77;;;1.63;;
59366;SDS011;45163;47.690;11.770;2023-03-13T00:36:29;2.73;;;1.90;;
59366;SDS011;45163;47.690;11.770;2023-03-13T00:38:57;1.90;;;1.70;;
59366;SDS011;45163;47.690;11.770;2023-03-13T00:41:25;2.63;;;1.70;;
59366;SDS011;45163;47.690;11.770;2023-03-13T00:43:53;1.63;;;1.50;;
59366;SDS011;45163;47.690;11.770;2023-03-13T00:46:21;2.13;;;1.60;;
59366;SDS011;45163;47.690;11.770;2023-03-13T00:48:49;2.03;;;1.70;;
59366;SDS011;45163;47.690;11.770;2023-03-13T00:51:16;2.33;;;1.70;;
59366;SDS011;45163;47.690;11.770;2023-03-13T00:53:43;2.50;;;1.40;;
59366;SDS011;45163;47.690;11.770;2023-03-13T00:56:11;2.23;;;1.40;;
59366;SDS011;45163;47.690;11.770;2023-03-13T00:58:39;2.63;;;2.17;;
59366;SDS011;45163;47.690;11.770;2023-03-13T01:03:33;2.87;;;1.90;;
59366;SDS011;45163;47.690;11.770;2023-03-13T01:06:01;2.50;;;2.00;;
59366;SDS011;45163;47.690;11.770;2023-03-13T01:08:28;3.53;;;1.80;;
59366;SDS011;45163;47.690;11.770;2023-03-13T01:11:02;3.00;;;2.13;;
59366;SDS011;45163;47.690;11.770;2023-03-13T01:13:30;2.43;;;2.20;;
59366;SDS011;45163;47.690;11.770;2023-03-13T01:16:04;2.70;;;2.27;;
59366;SDS011;45163;47.690;11.770;2023-03-13T01:18:35;3.20;;;2.33;;
59366;SDS011;45163;47.690;11.770;2023-03-13T01:21:02;3.27;;;2.00;;
59366;SDS011;45163;47.690;11.770;2023-03-13T01:23:29;2.10;;;1.87;;
59366;SDS011;45163;47.690;11.770;2023-03-13T01:25:55;2.50;;;2.10;;
59366;SDS011;45163;47.690;11.770;2023-03-13T01:28:22;2.47;;;2.20;;
59366;SDS011;45163;47.690;11.770;2023-03-13T01:30:49;2.90;;;2.20;;
59366;SDS011;45163;47.690;11.770;2023-03-13T01:33:16;2.67;;;2.40;;
59366;SDS011;45163;47.690;11.770;2023-03-13T01:35:42;4.43;;;2.40;;
59366;SDS011;45163;47.690;11.770;2023-03-13T01:38:08;2.63;;;2.30;;
59366;SDS011;45163;47.690;11.770;2023-03-13T01:40:38;2.80;;;2.13;;
59366;SDS011;45163;47.690;11.770;2023-03-13T01:43:20;2.43;;;2.07;;
59366;SDS011;45163;47.690;11.770;2023-03-13T01:45:58;2.20;;;2.00;;
59366;SDS011;45163;47.690;11.770;2023-03-13T01:50:54;3.10;;;2.00;;
59366;SDS011;45163;47.690;11.770;2023-03-13T01:53:22;2.53;;;2.30;;
59366;SDS011;45163;47.690;11.770;2023-03-13T01:55:49;3.23;;;2.13;;
59366;SDS011;45163;47.690;11.770;2023-03-13T01:58:18;2.27;;;1.77;;
59366;SDS011;45163;47.690;11.770;2023-03-13T02:00:44;5.17;;;2.30;;
59366;SDS011;45163;47.690;11.770;2023-03-13T02:03:11;2.20;;;2.00;;
59366;SDS011;45163;47.690;11.770;2023-03-13T02:05:42;3.10;;;2.40;;
59366;SDS011;45163;47.690;11.770;2023-03-13T02:08:14;2.47;;;2.20;;
59366;SDS011;45163;47.690;11.770;2023-03-13T02:10:47;3.17;;;2.60;;
59366;SDS011;45163;47.690;11.770;2023-03-13T02:13:16;2.67;;;2.23;;
59366;SDS011;45163;47.690;11.770;2023-03-13T02:15:44;2.87;;;2.47;;
59366;SDS011;45163;47.690;11.770;2023-03-13T02:18:10;3.93;;;2.93;;
59366;SDS011;45163;47.690;11.770;2023-03-13T02:20:37;3.30;;;3.00;;
59366;SDS011;45163;47.690;11.770;2023-03-13T02:23:06;3.57;;;2.87;;
59366;SDS011;45163;47.690;11.770;2023-03-13T02:25:41;3.60;;;2.93;;
59366;SDS011;45163;47.690;11.770;2023-03-13T02:28:16;3.73;;;2.90;;
59366;SDS011;45163;47.690;11.770;2023-03-13T02:30:46;3.23;;;2.50;;
59366;SDS011;45163;47.690;11.770;2023-03-13T02:33:14;3.10;;;2.70;;
59366;SDS011;45163;47.690;11.770;2023-03-13T02:35:41;3.03;;;2.60;;
59366;SDS011;45163;47.690;11.770;2023-03-13T02:38:10;3.30;;;2.60;;
59366;SDS011;45163;47.690;11.770;2023-03-13T02:40:41;3.23;;;2.60;;
59366;SDS011;45163;47.690;11.770;2023-03-13T02:43:10;3.67;;;2.60;;
59366;SDS011;45163;47.690;11.770;2023-03-13T02:45:41;3.77;;;2.87;;
59366;SDS011;45163;47.690;11.770;2023-03-13T02:48:07;4.20;;;3.20;;
59366;SDS011;45163;47.690;11.770;2023-03-13T02:50:33;3.57;;;2.93;;
59366;SDS011;45163;47.690;11.770;2023-03-13T02:53:02;4.17;;;3.43;;
59366;SDS011;45163;47.690;11.770;2023-03-13T02:55:33;4.47;;;3.00;;
59366;SDS011;45163;47.690;11.770;2023-03-13T02:58:03;4.90;;;3.20;;
59366;SDS011;45163;47.690;11.770;2023-03-13T03:00:29;3.70;;;3.20;;
59366;SDS011;45163;47.690;11.770;2023-03-13T03:02:55;14.27;;;6.40;;
59366;SDS011;45163;47.690;11.770;2023-03-13T03:05:21;5.53;;;3.83;;
59366;SDS011;45163;47.690;11.770;2023-03-13T03:07:48;5.00;;;3.53;;
59366;SDS011;45163;47.690;11.770;2023-03-13T03:10:15;6.70;;;4.37;;
59366;SDS011;45163;47.690;11.770;2023-03-13T03:12:42;6.30;;;4.37;;
59366;SDS011;45163;47.690;11.770;2023-03-13T03:15:08;4.53;;;3.17;;
59366;SDS011;45163;47.690;11.770;2023-03-13T03:17:34;14.93;;;7.23;;
59366;SDS011;45163;47.690;11.770;2023-03-13T03:20:01;7.03;;;4.00;;
59366;SDS011;45163;47.690;11.770;2023-03-13T03:22:29;4.63;;;3.40;;
59366;SDS011;45163;47.690;11.770;2023-03-13T03:24:55;4.80;;;3.43;;
59366;SDS011;45163;47.690;11.770;2023-03-13T03:27:21;3.60;;;3.00;;
59366;SDS011;45163;47.690;11.770;2023-03-13T03:29:47;4.17;;;3.20;;
59366;SDS011;45163;47.690;11.770;2023-03-13T03:32:13;3.20;;;2.70;;
59366;SDS011;45163;47.690;11.770;2023-03-13T03:34:39;2.70;;;2.20;;
59366;SDS011;45163;47.690;11.770;2023-03-13T03:37:05;2.70;;;2.40;;
59366;SDS011;45163;47.690;11.770;2023-03-13T03:39:31;3.10;;;2.47;;
59366;SDS011;45163;47.690;11.770;2023-03-13T03:41:57;2.97;;;2.40;;
59366;SDS011;45163;47.690;11.770;2023-03-13T03:44:23;2.97;;;2.47;;
59366;SDS011;45163;47.690;11.770;2023-03-13T03:46:49;2.50;;;2.20;;
59366;SDS011;45163;47.690;11.770;2023-03-13T03:49:15;2.80;;;2.50;;
59366;SDS011;45163;47.690;11.770;2023-03-13T03:51:41;2.53;;;2.30;;
59366;SDS011;45163;47.690;11.770;2023-03-13T03:54:06;3.23;;;2.93;;
59366;SDS011;45163;47.690;11.770;2023-03-13T03:56:32;4.00;;;3.27;;
59366;SDS011;45163;47.690;11.770;2023-03-13T03:58:58;4.80;;;3.70;;
59366;SDS011;45163;47.690;11.770;2023-03-13T04:01:24;5.47;;;3.37;;
59366;SDS011;45163;47.690;11.770;2023-03-13T04:03:50;4.53;;;3.67;;
59366;SDS011;45163;47.690;11.770;2023-03-13T04:06:16;4.20;;;3.37;;
59366;SDS011;45163;47.690;11.770;2023-03-13T04:08:42;5.83;;;3.70;;
59366;SDS011;45163;47.690;11.770;2023-03-13T04:11:08;4.50;;;3.23;;
59366;SDS011;45163;47.690;11.770;2023-03-13T04:13:34;3.43;;;2.83;;
59366;SDS011;45163;47.690;11.770;2023-03-13T04:16:05;2.83;;;2.53;;
59366;SDS011;45163;47.690;11.770;2023-03-13T04:18:34;3.90;;;2.80;;
59366;SDS011;45163;47.690;11.770;2023-03-13T04:21:01;6.93;;;4.63;;
59366;SDS011;45163;47.690;11.770;2023-03-13T04:23:28;6.03;;;3.50;;
59366;SDS011;45163;47.690;11.770;2023-03-13T04:25:54;4.67;;;3.27;;
59366;SDS011;45163;47.690;11.770;2023-03-13T04:28:20;4.20;;;2.70;;
59366;SDS011;45163;47.690;11.770;2023-03-13T04:30:46;3.40;;;2.70;;
59366;SDS011;45163;47.690;11.770;2023-03-13T04:33:11;5.33;;;2.90;;
59366;SDS011;45163;47.690;11.770;2023-03-13T04:35:37;4.43;;;2.50;;
59366;SDS011;45163;47.690;11.770;2023-03-13T04:38:03;2.33;;;2.10;;
59366;SDS011;45163;47.690;11.770;2023-03-13T04:40:29;2.53;;;1.90;;
59366;SDS011;45163;47.690;11.770;2023-03-13T04:42:55;3.77;;;2.30;;
59366;SDS011;45163;47.690;11.770;2023-03-13T04:45:21;2.73;;;2.10;;
59366;SDS011;45163;47.690;11.770;2023-03-13T04:47:47;2.00;;;1.80;;
59366;SDS011;45163;47.690;11.770;2023-03-13T04:50:13;1.97;;;1.70;;
59366;SDS011;45163;47.690;11.770;2023-03-13T04:52:39;2.00;;;1.80;;
59366;SDS011;45163;47.690;11.770;2023-03-13T04:55:06;2.97;;;2.10;;
59366;SDS011;45163;47.690;11.770;2023-03-13T04:57:33;2.33;;;2.13;;
59366;SDS011;45163;47.690;11.770;2023-03-13T04:59:59;2.00;;;1.80;;
59366;SDS011;45163;47.690;11.770;2023-03-13T05:02:25;2.00;;;1.80;;
59366;SDS011;45163;47.690;11.770;2023-03-13T05:04:51;1.73;;;1.63;;
59366;SDS011;45163;47.690;11.770;2023-03-13T05:07:17;2.20;;;1.77;;
59366;SDS011;45163;47.690;11.770;2023-03-13T05:09:43;2.40;;;1.97;;
59366;SDS011;45163;47.690;11.770;2023-03-13T05:12:09;1.97;;;1.77;;
59366;SDS011;45163;47.690;11.770;2023-03-13T05:14:35;2.20;;;1.97;;
59366;SDS011;45163;47.690;11.770;2023-03-13T05:17:01;1.90;;;1.70;;
59366;SDS011;45163;47.690;11.770;2023-03-13T05:19:27;2.63;;;2.10;;
59366;SDS011;45163;47.690;11.770;2023-03-13T05:21:53;2.27;;;1.90;;
59366;SDS011;45163;47.690;11.770;2023-03-13T05:24:18;2.27;;;1.97;;
59366;SDS011;45163;47.690;11.770;2023-03-13T05:26:44;2.00;;;1.80;;
59366;SDS011;45163;47.690;11.770;2023-03-13T05:29:10;2.13;;;1.93;;
59366;SDS011;45163;47.690;11.770;2023-03-13T05:31:36;2.20;;;2.00;;
59366;SDS011;45163;47.690;11.770;2023-03-13T05:34:02;3.90;;;2.07;;
59366;SDS011;45163;47.690;11.770;2023-03-13T05:36:28;2.30;;;2.10;;
59366;SDS011;45163;47.690;11.770;2023-03-13T05:38:54;2.43;;;2.13;;
59366;SDS011;45163;47.690;11.770;2023-03-13T05:41:20;2.77;;;2.53;;
59366;SDS011;45163;47.690;11.770;2023-03-13T05:43:46;2.30;;;2.10;;
59366;SDS011;45163;47.690;11.770;2023-03-13T05:46:12;2.53;;;2.27;;
59366;SDS011;45163;47.690;11.770;2023-03-13T05:48:38;2.63;;;2.13;;
59366;SDS011;45163;47.690;11.770;2023-03-13T05:51:04;2.57;;;2.20;;
59366;SDS011;45163;47.690;11.770;2023-03-13T05:53:30;1.73;;;1.63;;
59366;SDS011;45163;47.690;11.770;2023-03-13T05:55:56;3.17;;;1.70;;
59366;SDS011;45163;47.690;11.770;2023-03-13T05:58:22;1.70;;;1.60;;
59366;SDS011;45163;47.690;11.770;2023-03-13T06:00:48;2.40;;;1.83;;
59366;SDS011;45163;47.690;11.770;2023-03-13T06:03:14;5.17;;;2.43;;
59366;SDS011;45163;47.690;11.770;2023-03-13T06:05:40;2.10;;;1.83;;
59366;SDS011;45163;47.690;11.770;2023-03-13T06:08:06;2.80;;;1.87;;
59366;SDS011;45163;47.690;11.770;2023-03-13T06:10:32;1.90;;;1.70;;
59366;SDS011;45163;47.690;11.770;2023-03-13T06:12:58;5.13;;;2.70;;
59366;SDS011;45163;47.690;11.770;2023-03-13T06:15:24;3.40;;;2.53;;
59366;SDS011;45163;47.690;11.770;2023-03-13T06:17:50;2.23;;;1.70;;
59366;SDS011;45163;47.690;11.770;2023-03-13T06:20:16;2.23;;;1.90;;
59366;SDS011;45163;47.690;11.770;2023-03-13T06:22:42;3.70;;;2.30;;
59366;SDS011;45163;47.690;11.770;2023-03-13T06:25:08;2.63;;;2.23;;
59366;SDS011;45163;47.690;11.770;2023-03-13T06:27:35;2.23;;;1.63;;
59366;SDS011;45163;47.690;11.770;2023-03-13T06:30:01;2.17;;;1.87;;
59366;SDS011;45163;47.690;11.770;2023-03-13T06:32:27;1.70;;;1.60;;
59366;SDS011;45163;47.690;11.770;2023-03-13T06:34:53;1.60;;;1.23;;
59366;SDS011;45163;47.690;11.770;2023-03-13T06:37:19;2.60;;;1.87;;
59366;SDS011;45163;47.690;11.770;2023-03-13T06:39:45;9.23;;;2.67;;
59366;SDS011;45163;47.690;11.770;2023-03-13T06:42:11;2.57;;;1.80;;
59366;SDS011;45163;47.690;11.770;2023-03-13T06:44:37;2.50;;;1.67;;
59366;SDS011;45163;47.690;11.770;2023-03-13T06:47:03;1.77;;;1.60;;
59366;SDS011;45163;47.690;11.770;2023-03-13T06:49:29;3.77;;;1.90;;
59366;SDS011;45163;47.690;11.770;2023-03-13T06:51:56;2.10;;;1.60;;
59366;SDS011;45163;47.690;11.770;2023-03-13T06:54:23;3.03;;;1.53;;
59366;SDS011;45163;47.690;11.770;2023-03-13T06:56:49;2.90;;;1.30;;
59366;SDS011;45163;47.690;11.770;2023-03-13T06:59:15;2.83;;;1.57;;
59366;SDS011;45163;47.690;11.770;2023-03-13T07:01:41;1.47;;;1.37;;
59366;SDS011;45163;47.690;11.770;2023-03-13T07:04:09;1.50;;;1.40;;
59366;SDS011;45163;47.690;11.770;2023-03-13T07:06:37;1.70;;;1.60;;
59366;SDS011;45163;47.690;11.770;2023-03-13T07:09:03;1.40;;;1.30;;
59366;SDS011;45163;47.690;11.770;2023-03-13T07:11:29;1.33;;;1.20;;
59366;SDS011;45163;47.690;11.770;2023-03-13T07:13:56;1.87;;;1.47;;
59366;SDS011;45163;47.690;11.770;2023-03-13T07:16:22;2.30;;;1.80;;
59366;SDS011;45163;47.690;11.770;2023-03-13T07:18:48;2.30;;;2.00;;
59366;SDS011;45163;47.690;11.770;2023-03-13T07:21:15;2.67;;;1.70;;
59366;SDS011;45163;47.690;11.770;2023-03-13T07:23:41;3.20;;;2.10;;
59366;SDS011;45163;47.690;11.770;2023-03-13T07:26:10;1.80;;;1.60;;
59366;SDS011;45163;47.690;11.770;2023-03-13T07:28:37;1.87;;;1.40;;
59366;SDS011;45163;47.690;11.770;2023-03-13T07:33:32;1.30;;;1.20;;
59366;SDS011;45163;47.690;11.770;2023-03-13T07:35:58;2.60;;;1.30;;
59366;SDS011;45163;47.690;11.770;2023-03-13T07:38:24;1.40;;;1.20;;
59366;SDS011;45163;47.690;11.770;2023-03-13T07:40:51;1.70;;;1.40;;
59366;SDS011;45163;47.690;11.770;2023-03-13T07:43:19;1.07;;;1.07;;
59366;SDS011;45163;47.690;11.770;2023-03-13T07:48:29;1.30;;;1.20;;
59366;SDS011;45163;47.690;11.770;2023-03-13T07:50:57;2.53;;;1.40;;
59366;SDS011;45163;47.690;11.770;2023-03-13T07:53:25;1.40;;;1.30;;
59366;SDS011;45163;47.690;11.770;2023-03-13T07:55:55;1.00;;;1.00;;
59366;SDS011;45163;47.690;11.770;2023-03-13T07:58:21;1.20;;;1.10;;
59366;SDS011;45163;47.690;11.770;2023-03-13T08:00:48;0.80;;;0.80;;
59366;SDS011;45163;47.690;11.770;2023-03-13T08:03:14;1.20;;;1.10;;
59366;SDS011;45163;47.690;11.770;2023-03-13T08:05:40;1.00;;;1.00;;
59366;SDS011;45163;47.690;11.770;2023-03-13T08:08:06;1.40;;;1.23;;
59366;SDS011;45163;47.690;11.770;2023-03-13T08:10:33;1.07;;;1.00;;
59366;SDS011;45163;47.690;11.770;2023-03-13T08:12:58;1.80;;;1.20;;
59366;SDS011;45163;47.690;11.770;2023-03-13T08:15:24;1.10;;;1.00;;
59366;SDS011;45163;47.690;11.770;2023-03-13T08:17:51;1.30;;;1.20;;
59366;SDS011;45163;47.690;11.770;2023-03-13T08:20:17;1.23;;;1.00;;
59366;SDS011;45163;47.690;11.770;2023-03-13T08:22:46;1.00;;;1.00;;
59366;SDS011;45163;47.690;11.770;2023-03-13T08:25:13;1.00;;;1.00;;
59366;SDS011;45163;47.690;11.770;2023-03-13T08:27:39;1.70;;;1.23;;
59366;SDS011;45163;47.690;11.770;2023-03-13T08:30:05;1.53;;;1.13;;
59366;SDS011;45163;47.690;11.770;2023-03-13T08:32:32;1.23;;;1.13;;
59366;SDS011;45163;47.690;11.770;2023-03-13T08:34:59;1.40;;;1.30;;
59366;SDS011;45163;47.690;11.770;2023-03-13T08:37:25;1.40;;;1.30;;
59366;SDS011;45163;47.690;11.770;2023-03-13T08:39:51;1.90;;;1.43;;
59366;SDS011;45163;47.690;11.770;2023-03-13T08:42:20;1.60;;;1.50;;
59366;SDS011;45163;47.690;11.770;2023-03-13T08:44:47;1.63;;;1.50;;
59366;SDS011;45163;47.690;11.770;2023-03-13T08:47:13;1.80;;;1.50;;
59366;SDS011;45163;47.690;11.770;2023-03-13T08:49:39;1.30;;;1.20;;
59366;SDS011;45163;47.690;11.770;2023-03-13T08:52:06;1.20;;;1.10;;
59366;SDS011;45163;47.690;11.770;2023-03-13T08:54:32;1.50;;;1.30;;
59366;SDS011;45163;47.690;11.770;2023-03-13T08:56:59;1.27;;;1.03;;
59366;SDS011;45163;47.690;11.770;2023-03-13T08:59:25;1.77;;;1.10;;
59366;SDS011;45163;47.690;11.770;2023-03-13T09:01:52;1.33;;;1.00;;
59366;SDS011;45163;47.690;11.770;2023-03-13T09:04:18;1.20;;;1.10;;
59366;SDS011;45163;47.690;11.770;2023-03-13T09:06:44;1.73;;;1.10;;
59366;SDS011;45163;47.690;11.770;2023-03-13T09:09:11;1.40;;;1.30;;
59366;SDS011;45163;47.690;11.770;2023-03-13T09:11:38;1.80;;;1.00;;
59366;SDS011;45163;47.690;11.770;2023-03-13T09:14:06;0.97;;;0.97;;
59366;SDS011;45163;47.690;11.770;2023-03-13T09:16:33;1.07;;;1.00;;
59366;SDS011;45163;47.690;11.770;2023-03-13T09:18:59;1.80;;;1.40;;
59366;SDS011;45163;47.690;11.770;2023-03-13T09:21:30;1.30;;;1.17;;
59366;SDS011;45163;47.690;11.770;2023-03-13T09:23:57;2.53;;;1.27;;
59366;SDS011;45163;47.690;11.770;2023-03-13T09:26:24;1.00;;;1.00;;
59366;SDS011;45163;47.690;11.770;2023-03-13T09:28:52;1.90;;;1.20;;
59366;SDS011;45163;47.690;11.770;2023-03-13T09:31:20;1.50;;;1.20;;
59366;SDS011;45163;47.690;11.770;2023-03-13T09:33:48;1.63;;;1.20;;
59366;SDS011;45163;47.690;11.770;2023-03-13T09:36:14;1.20;;;1.10;;
59366;SDS011;45163;47.690;11.770;2023-03-13T09:38:43;1.30;;;1.20;;
59366;SDS011;45163;47.690;11.770;2023-03-13T09:43:44;2.87;;;1.70;;
59366;SDS011;45163;47.690;11.770;2023-03-13T09:46:16;1.70;;;1.40;;
59366;SDS011;45163;47.690;11.770;2023-03-13T09:48:44;1.40;;;1.30;;
59366;SDS011;45163;47.690;11.770;2023-03-13T09:54:07;1.00;;;1.00;;
59366;SDS011;45163;47.690;11.770;2023-03-13T09:56:45;0.90;;;0.90;;
59366;SDS011;45163;47.690;11.770;2023-03-13T10:02:06;3.30;;;1.43;;
59366;SDS011;45163;47.690;11.770;2023-03-13T10:04:46;0.97;;;0.90;;
59366;SDS011;45163;47.690;11.770;2023-03-13T10:07:16;1.77;;;1.27;;
59366;SDS011;45163;47.690;11.770;2023-03-13T10:09:45;1.17;;;1.07;;
59366;SDS011;45163;47.690;11.770;2023-03-13T10:23:02;1.20;;;1.10;;
59366;SDS011;45163;47.690;11.770;2023-03-13T10:25:33;1.27;;;1.17;;
59366;SDS011;45163;47.690;11.770;2023-03-13T10:28:01;1.30;;;1.20;;
59366;SDS011;45163;47.690;11.770;2023-03-13T10:30:28;1.10;;;1.00;;
59366;SDS011;45163;47.690;11.770;2023-03-13T10:32:59;1.30;;;1.20;;
59366;SDS011;45163;47.690;11.770;2023-03-13T10:35:41;1.63;;;1.23;;
59366;SDS011;45163;47.690;11.770;2023-03-13T10:38:09;1.60;;;1.30;;
59366;SDS011;45163;47.690;11.770;2023-03-13T10:40:37;1.30;;;1.20;;
59366;SDS011;45163;47.690;11.770;2023-03-13T10:43:05;6.07;;;1.40;;
59366;SDS011;45163;47.690;11.770;2023-03-13T10:45:37;1.70;;;1.30;;
59366;SDS011;45163;47.690;11.770;2023-03-13T10:48:10;3.23;;;1.33;;
59366;SDS011;45163;47.690;11.770;2023-03-13T10:50:40;4.90;;;1.20;;
59366;SDS011;45163;47.690;11.770;2023-03-13T10:53:19;2.70;;;1.17;;
59366;SDS011;45163;47.690;11.770;2023-03-13T10:55:48;1.93;;;1.20;;
59366;SDS011;45163;47.690;11.770;2023-03-13T10:58:17;4.93;;;1.43;;
59366;SDS011;45163;47.690;11.770;2023-03-13T11:03:42;11.65;;;1.80;;
59366;SDS011;45163;47.690;11.770;2023-03-13T11:06:21;9.60;;;1.20;;
59366;SDS011;45163;47.690;11.770;2023-03-13T11:11:29;5.73;;;1.30;;
59366;SDS011;45163;47.690;11.770;2023-03-13T11:14:17;5.60;;;1.33;;
59366;SDS011;45163;47.690;11.770;2023-03-13T11:16:48;8.32;;;1.50;;
59366;SDS011;45163;47.690;11.770;2023-03-13T11:27:10;3.45;;;1.10;;
59366;SDS011;45163;47.690;11.770;2023-03-13T11:29:54;10.73;;;1.92;;
59366;SDS011;45163;47.690;11.770;2023-03-13T11:32:42;4.07;;;1.00;;
59366;SDS011;45163;47.690;11.770;2023-03-13T11:37:53;1.40;;;1.30;;
59366;SDS011;45163;47.690;11.770;2023-03-13T11:40:29;4.05;;;1.20;;
59366;SDS011;45163;47.690;11.770;2023-03-13T11:43:07;2.05;;;1.10;;
59366;SDS011;45163;47.690;11.770;2023-03-13T11:49:03;7.75;;;1.40;;
59366;SDS011;45163;47.690;11.770;2023-03-13T11:57:06;2.78;;;1.23;;
59366;SDS011;45163;47.690;11.770;2023-03-13T12:02:22;1.40;;;1.17;;
59366;SDS011;45163;47.690;11.770;2023-03-13T12:05:13;17.92;;;2.60;;
59366;SDS011;45163;47.690;11.770;2023-03-13T12:07:44;12.48;;;2.28;;
59366;SDS011;45163;47.690;11.770;2023-03-13T12:10:20;2.65;;;1.15;;
59366;SDS011;45163;47.690;11.770;2023-03-13T12:13:12;12.02;;;2.13;;
59366;SDS011;45163;47.690;11.770;2023-03-13T12:16:02;6.25;;;1.45;;
59366;SDS011;45163;47.690;11.770;2023-03-13T12:18:35;1.20;;;1.10;;
59366;SDS011;45163;47.690;11.770;2023-03-13T12:24:20;3.00;;;1.40;;
59366;SDS011;45163;47.690;11.770;2023-03-13T12:26:59;1.50;;;1.40;;
59366;SDS011;45163;47.690;11.770;2023-03-13T12:31:56;1.42;;;1.33;;
59366;SDS011;45163;47.690;11.770;2023-03-13T12:34:35;1.20;;;1.10;;
59366;SDS011;45163;47.690;11.770;2023-03-13T12:37:13;1.52;;;1.20;;
59366;SDS011;45163;47.690;11.770;2023-03-13T12:40:10;1.80;;;1.00;;
59366;SDS011;45163;47.690;11.770;2023-03-13T12:42:55;1.17;;;1.10;;
59366;SDS011;45163;47.690;11.770;2023-03-13T12:45:22;1.20;;;1.10;;
59366;SDS011;45163;47.690;11.770;2023-03-13T12:56:28;3.35;;;1.08;;
59366;SDS011;45163;47.690;11.770;2023-03-13T12:59:23;1.35;;;1.00;;
59366;SDS011;45163;47.690;11.770;2023-03-13T13:01:53;2.03;;;1.10;;
59366;SDS011;45163;47.690;11.770;2023-03-13T13:04:21;1.58;;;1.27;;
59366;SDS011;45163;47.690;11.770;2023-03-13T13:11:51;1.52;;;1.05;;
59366;SDS011;45163;47.690;11.770;2023-03-13T13:16:48;1.30;;;1.20;;
59366;SDS011;45163;47.690;11.770;2023-03-13T13:24:52;1.02;;;0.93;;
59366;SDS011;45163;47.690;11.770;2023-03-13T13:28:04;1.20;;;1.10;;
59366;SDS011;45163;47.690;11.770;2023-03-13T13:32:53;1.40;;;1.30;;
59366;SDS011;45163;47.690;11.770;2023-03-13T13:35:39;3.78;;;1.42;;
59366;SDS011;45163;47.690;11.770;2023-03-13T13:40:56;0.90;;;0.90;;
59366;SDS011;45163;47.690;11.770;2023-03-13T13:43:23;0.90;;;0.88;;
59366;SDS011;45163;47.690;11.770;2023-03-13T13:46:35;1.02;;;0.93;;
59366;SDS011;45163;47.690;11.770;2023-03-13T13:51:32;1.67;;;1.10;;
59366;SDS011;45163;47.690;11.770;2023-03-13T13:54:31;1.05;;;0.95;;
59366;SDS011;45163;47.690;11.770;2023-03-13T13:57:30;1.52;;;1.08;;
59366;SDS011;45163;47.690;11.770;2023-03-13T14:00:14;1.35;;;1.20;;
59366;SDS011;45163;47.690;11.770;2023-03-13T14:02:54;1.20;;;1.10;;
59366;SDS011;45163;47.690;11.770;2023-03-13T14:05:25;1.02;;;0.93;;
59366;SDS011;45163;47.690;11.770;2023-03-13T14:07:58;1.95;;;1.10;;
59366;SDS011;45163;47.690;11.770;2023-03-13T14:10:31;0.98;;;0.98;;
59366;SDS011;45163;47.690;11.770;2023-03-13T14:13:02;0.90;;;0.90;;
59366;SDS011;45163;47.690;11.770;2023-03-13T14:15:52;1.20;;;1.10;;
59366;SDS011;45163;47.690;11.770;2023-03-13T14:18:25;1.90;;;0.88;;
59366;SDS011;45163;47.690;11.770;2023-03-13T14:20:54;4.88;;;1.30;;
59366;SDS011;45163;47.690;11.770;2023-03-13T14:26:11;3.90;;;1.20;;
59366;SDS011;45163;47.690;11.770;2023-03-13T14:28:44;0.82;;;0.82;;
59366;SDS011;45163;47.690;11.770;2023-03-13T14:33:50;1.77;;;1.20;;
59366;SDS011;45163;47.690;11.770;2023-03-13T14:36:16;3.78;;;1.67;;
59366;SDS011;45163;47.690;11.770;2023-03-13T14:43:54;1.13;;;1.00;;
59366;SDS011;45163;47.690;11.770;2023-03-13T14:46:30;2.55;;;1.30;;
59366;SDS011;45163;47.690;11.770;2023-03-13T14:49:05;1.38;;;1.10;;
59366;SDS011;45163;47.690;11.770;2023-03-13T14:51:36;1.05;;;1.00;;
59366;SDS011;45163;47.690;11.770;2023-03-13T14:54:03;1.23;;;1.10;;
59366;SDS011;45163;47.690;11.770;2023-03-13T15:01:32;1.90;;;1.17;;
59366;SDS011;45163;47.690;11.770;2023-03-13T15:03:58;8.85;;;1.65;;
59366;SDS011;45163;47.690;11.770;2023-03-13T15:06:25;6.85;;;1.60;;
59366;SDS011;45163;47.690;11.770;2023-03-13T15:11:55;1.00;;;0.90;;
59366;SDS011;45163;47.690;11.770;2023-03-13T15:14:30;1.17;;;1.07;;
59366;SDS011;45163;47.690;11.770;2023-03-13T15:17:01;1.20;;;1.03;;
59366;SDS011;45163;47.690;11.770;2023-03-13T15:19:29;1.40;;;1.13;;
59366;SDS011;45163;47.690;11.770;2023-03-13T15:21:56;3.80;;;1.30;;
59366;SDS011;45163;47.690;11.770;2023-03-13T15:24:23;1.87;;;1.30;;
59366;SDS011;45163;47.690;11.770;2023-03-13T15:26:49;4.00;;;1.60;;
59366;SDS011;45163;47.690;11.770;2023-03-13T15:29:15;5.90;;;1.60;;
59366;SDS011;45163;47.690;11.770;2023-03-13T15:31:42;15.37;;;2.80;;
59366;SDS011;45163;47.690;11.770;2023-03-13T15:34:09;10.73;;;2.47;;
59366;SDS011;45163;47.690;11.770;2023-03-13T15:36:38;6.20;;;2.30;;
59366;SDS011;45163;47.690;11.770;2023-03-13T15:39:16;11.00;;;3.30;;
59366;SDS011;45163;47.690;11.770;2023-03-13T15:41:49;9.73;;;4.43;;
59366;SDS011;45163;47.690;11.770;2023-03-13T15:44:15;5.40;;;2.97;;
59366;SDS011;45163;47.690;11.770;2023-03-13T15:46:48;8.83;;;5.40;;
59366;SDS011;45163;47.690;11.770;2023-03-13T15:49:14;20.57;;;6.23;;
59366;SDS011;45163;47.690;11.770;2023-03-13T15:51:40;24.63;;;9.17;;
59366;SDS011;45163;47.690;11.770;2023-03-13T15:54:06;14.10;;;5.93;;
59366;SDS011;45163;47.690;11.770;2023-03-13T15:56:35;8.13;;;3.97;;
59366;SDS011;45163;47.690;11.770;2023-03-13T15:59:08;9.70;;;2.27;;
59366;SDS011;45163;47.690;11.770;2023-03-13T16:01:38;9.97;;;2.50;;
59366;SDS011;45163;47.690;11.770;2023-03-13T16:04:04;4.20;;;2.60;;
59366;SDS011;45163;47.690;11.770;2023-03-13T16:06:31;9.57;;;3.60;;
59366;SDS011;45163;47.690;11.770;2023-03-13T16:08:58;5.90;;;1.90;;
59366;SDS011;45163;47.690;11.770;2023-03-13T16:11:25;8.43;;;2.27;;
59366;SDS011;45163;47.690;11.770;2023-03-13T16:13:52;9.93;;;2.90;;
59366;SDS011;45163;47.690;11.770;2023-03-13T16:16:19;4.60;;;2.30;;
59366;SDS011;45163;47.690;11.770;2023-03-13T16:18:48;6.90;;;3.03;;
59366;SDS011;45163;47.690;11.770;2023-03-13T16:21:17;7.93;;;2.90;;
59366;SDS011;45163;47.690;11.770;2023-03-13T16:23:45;6.77;;;3.50;;
59366;SDS011;45163;47.690;11.770;2023-03-13T16:26:13;12.87;;;6.17;;
59366;SDS011;45163;47.690;11.770;2023-03-13T16:28:42;10.27;;;5.03;;
59366;SDS011;45163;47.690;11.770;2023-03-13T16:31:18;3.30;;;2.13;;
59366;SDS011;45163;47.690;11.770;2023-03-13T16:33:46;14.90;;;5.57;;
59366;SDS011;45163;47.690;11.770;2023-03-13T16:36:13;6.33;;;3.63;;